createdAt,value
2023-10-20T11:51:52.482Z,0
2023-10-20T12:01:51.730Z,116.7
2023-10-20T12:11:51.037Z,118.1
2023-10-20T12:21:50.273Z,120.3
2023-10-20T12:31:49.635Z,121.1
2023-10-20T12:41:48.836Z,121.4
2023-10-20T12:51:48.126Z,121.5
2023-10-20T13:01:47.465Z,121.4
2023-10-20T13:11:46.878Z,120.4
2023-10-20T13:21:46.204Z,118.8
2023-10-20T13:31:45.646Z,117.7
2023-10-20T13:41:46.434Z,117.1
2023-10-20T13:51:44.248Z,114.9
2023-10-20T14:01:43.555Z,113
2023-10-20T14:11:42.833Z,111.4
2023-10-20T14:21:42.067Z,109.7
2023-10-20T14:31:41.373Z,105.6
2023-10-20T14:41:40.672Z,105.6
2023-10-20T14:51:39.912Z,105.6
2023-10-20T15:01:39.207Z,105.6
2023-10-20T15:11:38.613Z,105.6
2023-10-20T15:21:37.762Z,105.6
2023-10-20T15:31:37.118Z,105.6
2023-10-20T15:41:36.408Z,105.6
2023-10-20T15:51:35.667Z,105.6
2023-10-20T16:01:34.949Z,105.6
2023-10-20T16:11:34.279Z,105.6
2023-10-20T16:21:33.535Z,105.6
2023-10-20T16:31:32.867Z,105.6
2023-10-20T16:41:32.132Z,105.6
2023-10-20T16:51:31.472Z,1332.8
2023-10-20T17:01:30.740Z,1332.8
2023-10-20T17:11:30.044Z,1332.8
2023-10-20T17:21:29.300Z,1332.8
2023-10-20T17:31:28.642Z,1332.8
2023-10-20T17:41:27.953Z,1332.8
2023-10-20T17:51:27.226Z,1332.8
2023-10-20T18:01:26.618Z,750.7
2023-10-20T18:11:25.845Z,750.7
2023-10-20T18:21:25.157Z,750.7
2023-10-20T18:31:24.461Z,750.7
2023-10-20T18:41:23.729Z,750.7
2023-10-20T18:51:23.044Z,750.7
2023-10-20T19:01:22.385Z,750.7
2023-10-20T19:11:21.657Z,750.7
2023-10-20T19:21:20.947Z,750.7
2023-10-20T19:31:20.315Z,750.7
2023-10-20T19:41:19.560Z,750.7
2023-10-20T19:51:18.898Z,750.7
2023-10-20T20:01:18.215Z,750.7
2023-10-20T20:11:17.486Z,750.7
2023-10-20T20:21:16.809Z,750.7
2023-10-20T20:31:16.110Z,750.7
2023-10-20T20:41:15.383Z,750.7
2023-10-20T20:51:14.741Z,750.7
2023-10-20T21:01:14.061Z,750.7
2023-10-20T21:11:13.318Z,750.7
2023-10-20T21:21:12.604Z,750.7
2023-10-20T21:31:11.917Z,750.7
2023-10-20T21:41:11.151Z,750.7
2023-10-20T21:51:10.501Z,750.7
2023-10-20T22:01:09.850Z,750.7
2023-10-20T22:11:09.105Z,750.7
2023-10-20T22:21:08.400Z,750.7
2023-10-20T22:31:07.743Z,750.7
2023-10-20T22:41:06.978Z,750.7
2023-10-20T22:51:06.366Z,750.7
2023-10-20T23:01:05.618Z,750.7
2023-10-20T23:11:04.927Z,750.7
2023-10-20T23:21:04.234Z,750.7
2023-10-20T23:31:03.548Z,750.7
2023-10-20T23:41:02.817Z,750.7
2023-10-20T23:51:02.216Z,750.7
